sensor_id;sensor_type;location;lat;lon;timestamp;pressure;altitude;pressure_sealevel;temperature;humidity
2339;BME280;1180;51.438;6.978;2024-02-21T00:00:04;101011.47;;;11.79;81.21
2339;BME280;1180;51.438;6.978;2024-02-21T00:02:30;101009.97;;;11.75;81.49
2339;BME280;1180;51.438;6.978;2024-02-21T00:04:55;101004.34;;;11.84;81.03
2339;BME280;1180;51.438;6.978;2024-02-21T00:07:20;101002.44;;;11.88;80.61
2339;BME280;1180;51.438;6.978;2024-02-21T00:09:46;101003.88;;;11.93;80.33
2339;BME280;1180;51.438;6.978;2024-02-21T00:12:11;100996.28;;;11.90;80.14
2339;BME280;1180;51.438;6.978;2024-02-21T00:14:39;100997.13;;;11.91;80.03
2339;BME280;1180;51.438;6.978;2024-02-21T00:17:04;100988.66;;;11.89;80.17
2339;BME280;1180;51.438;6.978;2024-02-21T00:19:29;100986.16;;;11.87;80.38
2339;BME280;1180;51.438;6.978;2024-02-21T00:21:55;100978.72;;;11.82;80.60
2339;BME280;1180;51.438;6.978;2024-02-21T00:24:20;100982.50;;;11.75;81.20
2339;BME280;1180;51.438;6.978;2024-02-21T00:26:45;100970.16;;;11.82;80.97
2339;BME280;1180;51.438;6.978;2024-02-21T00:29:11;100963.50;;;11.78;80.94
2339;BME280;1180;51.438;6.978;2024-02-21T00:31:36;100963.28;;;11.82;80.72
2339;BME280;1180;51.438;6.978;2024-02-21T00:34:01;100966.75;;;11.81;81.11
2339;BME280;1180;51.438;6.978;2024-02-21T00:36:27;100965.69;;;11.85;80.79
2339;BME280;1180;51.438;6.978;2024-02-21T00:38:52;100957.13;;;11.85;80.70
2339;BME280;1180;51.438;6.978;2024-02-21T00:41:17;100940.13;;;11.82;81.36
2339;BME280;1180;51.438;6.978;2024-02-21T00:43:43;100940.03;;;11.84;81.10
2339;BME280;1180;51.438;6.978;2024-02-21T00:46:08;100944.09;;;11.88;80.71
2339;BME280;1180;51.438;6.978;2024-02-21T00:48:33;100950.25;;;11.85;81.16
2339;BME280;1180;51.438;6.978;2024-02-21T00:50:59;100942.44;;;11.87;80.99
2339;BME280;1180;51.438;6.978;2024-02-21T00:53:24;100937.28;;;11.87;81.11
2339;BME280;1180;51.438;6.978;2024-02-21T00:55:51;100935.47;;;11.89;80.99
2339;BME280;1180;51.438;6.978;2024-02-21T00:58:16;100932.81;;;11.75;81.45
2339;BME280;1180;51.438;6.978;2024-02-21T01:00:42;100933.41;;;11.80;81.37
2339;BME280;1180;51.438;6.978;2024-02-21T01:03:07;100923.13;;;11.80;81.60
2339;BME280;1180;51.438;6.978;2024-02-21T01:05:32;100922.94;;;11.83;81.80
2339;BME280;1180;51.438;6.978;2024-02-21T01:07:58;100918.31;;;11.90;81.01
2339;BME280;1180;51.438;6.978;2024-02-21T01:10:23;100907.94;;;11.91;80.62
2339;BME280;1180;51.438;6.978;2024-02-21T01:12:49;100913.16;;;11.90;80.87
2339;BME280;1180;51.438;6.978;2024-02-21T01:15:14;100901.63;;;11.81;81.36
2339;BME280;1180;51.438;6.978;2024-02-21T01:17:39;100909.91;;;11.86;80.69
2339;BME280;1180;51.438;6.978;2024-02-21T01:20:06;100903.28;;;11.82;81.07
2339;BME280;1180;51.438;6.978;2024-02-21T01:22:32;100902.47;;;11.81;81.45
2339;BME280;1180;51.438;6.978;2024-02-21T01:24:58;100887.13;;;11.80;81.29
2339;BME280;1180;51.438;6.978;2024-02-21T01:27:23;100870.78;;;11.81;81.07
2339;BME280;1180;51.438;6.978;2024-02-21T01:29:49;100865.78;;;11.78;81.04
2339;BME280;1180;51.438;6.978;2024-02-21T01:32:15;100870.59;;;11.84;81.19
2339;BME280;1180;51.438;6.978;2024-02-21T01:34:41;100865.13;;;11.74;81.68
2339;BME280;1180;51.438;6.978;2024-02-21T01:37:06;100867.84;;;11.87;80.76
2339;BME280;1180;51.438;6.978;2024-02-21T01:39:33;100868.94;;;11.67;81.66
2339;BME280;1180;51.438;6.978;2024-02-21T01:41:58;100876.50;;;11.70;81.75
2339;BME280;1180;51.438;6.978;2024-02-21T01:44:24;100878.75;;;11.60;82.68
2339;BME280;1180;51.438;6.978;2024-02-21T01:46:50;100859.34;;;11.70;82.47
2339;BME280;1180;51.438;6.978;2024-02-21T01:49:17;100867.47;;;11.79;81.88
2339;BME280;1180;51.438;6.978;2024-02-21T01:51:43;100853.50;;;11.83;81.46
2339;BME280;1180;51.438;6.978;2024-02-21T01:54:09;100857.00;;;11.82;81.67
2339;BME280;1180;51.438;6.978;2024-02-21T01:56:35;100851.84;;;11.82;81.46
2339;BME280;1180;51.438;6.978;2024-02-21T01:59:00;100847.41;;;11.69;82.34
2339;BME280;1180;51.438;6.978;2024-02-21T02:01:26;100845.75;;;11.68;82.19
2339;BME280;1180;51.438;6.978;2024-02-21T02:03:51;100841.50;;;11.67;82.55
2339;BME280;1180;51.438;6.978;2024-02-21T02:06:17;100839.50;;;11.73;82.51
2339;BME280;1180;51.438;6.978;2024-02-21T02:08:43;100838.59;;;11.74;82.02
2339;BME280;1180;51.438;6.978;2024-02-21T02:11:10;100850.13;;;11.82;81.99
2339;BME280;1180;51.438;6.978;2024-02-21T02:13:35;100831.03;;;11.87;81.96
2339;BME280;1180;51.438;6.978;2024-02-21T02:16:01;100826.06;;;11.83;81.76
2339;BME280;1180;51.438;6.978;2024-02-21T02:18:26;100828.56;;;11.69;82.69
2339;BME280;1180;51.438;6.978;2024-02-21T02:20:52;100810.31;;;11.74;82.49
2339;BME280;1180;51.438;6.978;2024-02-21T02:23:28;100814.44;;;11.76;82.33
2339;BME280;1180;51.438;6.978;2024-02-21T02:25:54;100805.34;;;11.70;82.85
2339;BME280;1180;51.438;6.978;2024-02-21T02:28:20;100802.84;;;11.69;82.72
2339;BME280;1180;51.438;6.978;2024-02-21T02:30:46;100807.06;;;11.70;82.31
2339;BME280;1180;51.438;6.978;2024-02-21T02:33:12;100789.91;;;11.70;82.09
2339;BME280;1180;51.438;6.978;2024-02-21T02:35:37;100781.47;;;11.68;82.14
2339;BME280;1180;51.438;6.978;2024-02-21T02:38:03;100784.28;;;11.64;82.78
2339;BME280;1180;51.438;6.978;2024-02-21T02:40:29;100783.47;;;11.63;82.80
2339;BME280;1180;51.438;6.978;2024-02-21T02:42:55;100768.78;;;11.65;83.11
2339;BME280;1180;51.438;6.978;2024-02-21T02:45:21;100766.84;;;11.69;82.61
2339;BME280;1180;51.438;6.978;2024-02-21T02:47:48;100766.28;;;11.64;82.02
2339;BME280;1180;51.438;6.978;2024-02-21T02:50:14;100766.69;;;11.56;82.69
2339;BME280;1180;51.438;6.978;2024-02-21T02:52:39;100765.63;;;11.60;82.72
2339;BME280;1180;51.438;6.978;2024-02-21T02:55:05;100764.28;;;11.53;83.06
2339;BME280;1180;51.438;6.978;2024-02-21T02:57:31;100761.41;;;11.43;83.25
2339;BME280;1180;51.438;6.978;2024-02-21T02:59:56;100761.16;;;11.48;82.98
2339;BME280;1180;51.438;6.978;2024-02-21T03:02:22;100758.75;;;11.45;83.11
2339;BME280;1180;51.438;6.978;2024-02-21T03:04:47;100762.59;;;11.37;83.39
2339;BME280;1180;51.438;6.978;2024-02-21T03:07:14;100760.00;;;11.37;84.13
2339;BME280;1180;51.438;6.978;2024-02-21T03:09:39;100753.63;;;11.45;83.97
2339;BME280;1180;51.438;6.978;2024-02-21T03:12:06;100747.88;;;11.55;83.31
2339;BME280;1180;51.438;6.978;2024-02-21T03:14:34;100757.94;;;11.60;82.88
2339;BME280;1180;51.438;6.978;2024-02-21T03:17:00;100751.09;;;11.59;82.43
2339;BME280;1180;51.438;6.978;2024-02-21T03:19:26;100756.00;;;11.64;82.20
2339;BME280;1180;51.438;6.978;2024-02-21T03:21:52;100748.69;;;11.72;82.01
2339;BME280;1180;51.438;6.978;2024-02-21T03:24:18;100744.81;;;11.65;81.69
2339;BME280;1180;51.438;6.978;2024-02-21T03:26:44;100735.22;;;11.52;82.75
2339;BME280;1180;51.438;6.978;2024-02-21T03:29:10;100730.41;;;11.46;83.31
2339;BME280;1180;51.438;6.978;2024-02-21T03:31:36;100727.00;;;11.46;83.16
2339;BME280;1180;51.438;6.978;2024-02-21T03:34:02;100730.06;;;11.52;83.07
2339;BME280;1180;51.438;6.978;2024-02-21T03:36:27;100728.50;;;11.50;82.73
2339;BME280;1180;51.438;6.978;2024-02-21T03:38:54;100725.84;;;11.51;82.95
2339;BME280;1180;51.438;6.978;2024-02-21T03:41:19;100723.28;;;11.51;82.96
2339;BME280;1180;51.438;6.978;2024-02-21T03:43:45;100731.63;;;11.55;82.30
2339;BME280;1180;51.438;6.978;2024-02-21T03:46:10;100731.72;;;11.53;82.85
2339;BME280;1180;51.438;6.978;2024-02-21T03:48:36;100732.72;;;11.51;82.87
2339;BME280;1180;51.438;6.978;2024-02-21T03:51:02;100731.34;;;11.45;83.09
2339;BME280;1180;51.438;6.978;2024-02-21T03:53:27;100731.47;;;11.42;83.08
2339;BME280;1180;51.438;6.978;2024-02-21T03:55:53;100740.69;;;11.46;83.27
2339;BME280;1180;51.438;6.978;2024-02-21T03:58:19;100737.84;;;11.51;83.02
2339;BME280;1180;51.438;6.978;2024-02-21T04:00:45;100741.25;;;11.51;83.10
2339;BME280;1180;51.438;6.978;2024-02-21T04:03:10;100753.78;;;11.58;82.60
2339;BME280;1180;51.438;6.978;2024-02-21T04:05:35;100755.75;;;11.68;82.34
2339;BME280;1180;51.438;6.978;2024-02-21T04:08:04;100751.69;;;11.64;82.08
2339;BME280;1180;51.438;6.978;2024-02-21T04:10:29;100747.38;;;11.65;81.92
2339;BME280;1180;51.438;6.978;2024-02-21T04:12:55;100748.84;;;11.69;81.85
2339;BME280;1180;51.438;6.978;2024-02-21T04:15:20;100755.81;;;11.67;81.71
2339;BME280;1180;51.438;6.978;2024-02-21T04:17:46;100743.31;;;11.61;82.05
2339;BME280;1180;51.438;6.978;2024-02-21T04:20:15;100737.44;;;11.59;82.18
2339;BME280;1180;51.438;6.978;2024-02-21T04:22:43;100738.19;;;11.61;82.45
2339;BME280;1180;51.438;6.978;2024-02-21T04:25:09;100739.16;;;11.58;82.31
2339;BME280;1180;51.438;6.978;2024-02-21T04:27:36;100734.44;;;11.66;81.55
2339;BME280;1180;51.438;6.978;2024-02-21T04:30:02;100733.69;;;11.64;81.23
2339;BME280;1180;51.438;6.978;2024-02-21T04:32:28;100739.75;;;11.63;81.36
2339;BME280;1180;51.438;6.978;2024-02-21T04:34:53;100741.72;;;11.74;80.46
2339;BME280;1180;51.438;6.978;2024-02-21T04:37:18;100737.47;;;11.73;80.87
2339;BME280;1180;51.438;6.978;2024-02-21T04:39:44;100732.44;;;11.72;81.01
2339;BME280;1180;51.438;6.978;2024-02-21T04:42:09;100727.16;;;11.59;81.36
2339;BME280;1180;51.438;6.978;2024-02-21T04:44:35;100727.31;;;11.55;81.82
2339;BME280;1180;51.438;6.978;2024-02-21T04:47:00;100726.47;;;11.55;82.20
2339;BME280;1180;51.438;6.978;2024-02-21T04:49:26;100720.44;;;11.56;81.82
2339;BME280;1180;51.438;6.978;2024-02-21T04:51:51;100720.53;;;11.54;81.55
2339;BME280;1180;51.438;6.978;2024-02-21T04:54:17;100720.09;;;11.62;80.39
2339;BME280;1180;51.438;6.978;2024-02-21T04:56:42;100716.44;;;11.66;80.20
2339;BME280;1180;51.438;6.978;2024-02-21T04:59:07;100721.03;;;11.61;80.30
2339;BME280;1180;51.438;6.978;2024-02-21T05:01:33;100719.03;;;11.66;80.42
2339;BME280;1180;51.438;6.978;2024-02-21T05:03:58;100712.59;;;11.74;80.33
2339;BME280;1180;51.438;6.978;2024-02-21T05:06:23;100711.19;;;11.68;79.73
2339;BME280;1180;51.438;6.978;2024-02-21T05:08:49;100708.38;;;11.73;79.17
2339;BME280;1180;51.438;6.978;2024-02-21T05:11:14;100707.41;;;11.59;79.91
2339;BME280;1180;51.438;6.978;2024-02-21T05:13:40;100706.91;;;11.68;79.93
2339;BME280;1180;51.438;6.978;2024-02-21T05:16:05;100702.56;;;11.69;79.31
2339;BME280;1180;51.438;6.978;2024-02-21T05:18:31;100691.91;;;11.61;79.84
2339;BME280;1180;51.438;6.978;2024-02-21T05:20:56;100695.44;;;11.74;79.39
2339;BME280;1180;51.438;6.978;2024-02-21T05:23:22;100689.94;;;11.80;78.76
2339;BME280;1180;51.438;6.978;2024-02-21T05:25:47;100694.34;;;11.78;78.86
2339;BME280;1180;51.438;6.978;2024-02-21T05:28:12;100702.22;;;11.75;79.47
2339;BME280;1180;51.438;6.978;2024-02-21T05:30:38;100696.63;;;11.68;79.11
2339;BME280;1180;51.438;6.978;2024-02-21T05:33:06;100686.09;;;11.57;79.39
2339;BME280;1180;51.438;6.978;2024-02-21T05:35:32;100693.78;;;11.73;79.04
2339;BME280;1180;51.438;6.978;2024-02-21T05:37:57;100679.84;;;11.77;78.76
2339;BME280;1180;51.438;6.978;2024-02-21T05:40:24;100681.00;;;11.72;78.77
2339;BME280;1180;51.438;6.978;2024-02-21T05:42:50;100679.53;;;11.67;78.66
2339;BME280;1180;51.438;6.978;2024-02-21T05:45:17;100669.88;;;11.71;78.85
2339;BME280;1180;51.438;6.978;2024-02-21T05:47:42;100671.66;;;11.70;78.70
2339;BME280;1180;51.438;6.978;2024-02-21T05:50:08;100677.91;;;11.81;78.15
2339;BME280;1180;51.438;6.978;2024-02-21T05:52:34;100676.00;;;11.84;78.26
2339;BME280;1180;51.438;6.978;2024-02-21T05:54:59;100668.72;;;11.77;78.09
2339;BME280;1180;51.438;6.978;2024-02-21T05:57:24;100672.88;;;11.79;78.03
2339;BME280;1180;51.438;6.978;2024-02-21T05:59:50;100667.81;;;11.78;78.10
2339;BME280;1180;51.438;6.978;2024-02-21T06:02:16;100664.94;;;11.68;78.56
2339;BME280;1180;51.438;6.978;2024-02-21T06:04:42;100664.75;;;11.71;78.17
2339;BME280;1180;51.438;6.978;2024-02-21T06:07:08;100658.78;;;11.70;78.31
2339;BME280;1180;51.438;6.978;2024-02-21T06:09:34;100650.00;;;11.75;77.61
2339;BME280;1180;51.438;6.978;2024-02-21T06:11:59;100649.81;;;11.78;77.56
2339;BME280;1180;51.438;6.978;2024-02-21T06:14:24;100647.78;;;11.68;78.05
2339;BME280;1180;51.438;6.978;2024-02-21T06:16:50;100640.13;;;11.67;78.01
2339;BME280;1180;51.438;6.978;2024-02-21T06:19:15;100630.28;;;11.59;78.07
2339;BME280;1180;51.438;6.978;2024-02-21T06:21:40;100625.25;;;11.58;78.43
2339;BME280;1180;51.438;6.978;2024-02-21T06:24:06;100621.03;;;11.71;78.08
2339;BME280;1180;51.438;6.978;2024-02-21T06:26:31;100623.97;;;11.65;77.49
2339;BME280;1180;51.438;6.978;2024-02-21T06:28:57;100622.06;;;11.68;77.81
2339;BME280;1180;51.438;6.978;2024-02-21T06:31:22;100623.63;;;11.71;77.86
2339;BME280;1180;51.438;6.978;2024-02-21T06:33:47;100620.78;;;11.76;77.42
2339;BME280;1180;51.438;6.978;2024-02-21T06:36:13;100622.38;;;11.78;77.33
2339;BME280;1180;51.438;6.978;2024-02-21T06:38:38;100611.25;;;11.78;77.05
2339;BME280;1180;51.438;6.978;2024-02-21T06:41:04;100607.09;;;11.75;77.41
2339;BME280;1180;51.438;6.978;2024-02-21T06:43:29;100603.88;;;11.72;77.57
2339;BME280;1180;51.438;6.978;2024-02-21T06:45:55;100606.91;;;11.64;77.85
2339;BME280;1180;51.438;6.978;2024-02-21T06:48:22;100603.03;;;11.71;77.58
2339;BME280;1180;51.438;6.978;2024-02-21T06:50:47;100600.41;;;11.73;77.71
2339;BME280;1180;51.438;6.978;2024-02-21T06:53:13;100595.16;;;11.74;76.94
2339;BME280;1180;51.438;6.978;2024-02-21T06:55:38;100598.94;;;11.68;77.63
2339;BME280;1180;51.438;6.978;2024-02-21T06:58:04;100599.03;;;11.81;76.49
2339;BME280;1180;51.438;6.978;2024-02-21T07:00:29;100598.00;;;11.84;76.36
2339;BME280;1180;51.438;6.978;2024-02-21T07:02:55;100598.00;;;11.84;76.25
2339;BME280;1180;51.438;6.978;2024-02-21T07:05:20;100603.72;;;11.89;75.90
2339;BME280;1180;51.438;6.978;2024-02-21T07:07:46;100602.25;;;11.85;75.72
2339;BME280;1180;51.438;6.978;2024-02-21T07:10:11;100606.94;;;11.78;76.08
2339;BME280;1180;51.438;6.978;2024-02-21T07:12:37;100601.59;;;11.81;75.95
2339;BME280;1180;51.438;6.978;2024-02-21T07:15:08;100594.91;;;11.79;76.27
2339;BME280;1180;51.438;6.978;2024-02-21T07:17:34;100602.97;;;11.87;75.77
2339;BME280;1180;51.438;6.978;2024-02-21T07:19:59;100597.75;;;11.89;75.56
2339;BME280;1180;51.438;6.978;2024-02-21T07:22:26;100595.00;;;11.77;75.95
2339;BME280;1180;51.438;6.978;2024-02-21T07:24:51;100594.72;;;11.82;76.22
2339;BME280;1180;51.438;6.978;2024-02-21T07:27:17;100591.69;;;11.90;75.59
2339;BME280;1180;51.438;6.978;2024-02-21T07:29:42;100591.97;;;11.99;75.63
2339;BME280;1180;51.438;6.978;2024-02-21T07:32:07;100589.84;;;11.92;75.37
2339;BME280;1180;51.438;6.978;2024-02-21T07:34:33;100590.91;;;12.04;74.89
2339;BME280;1180;51.438;6.978;2024-02-21T07:36:58;100578.59;;;12.09;74.76
2339;BME280;1180;51.438;6.978;2024-02-21T07:39:24;100586.50;;;12.06;74.21
2339;BME280;1180;51.438;6.978;2024-02-21T07:41:49;100585.03;;;12.02;74.71
2339;BME280;1180;51.438;6.978;2024-02-21T07:44:15;100580.84;;;11.99;74.75
2339;BME280;1180;51.438;6.978;2024-02-21T07:46:41;100579.09;;;11.85;75.27
2339;BME280;1180;51.438;6.978;2024-02-21T07:49:10;100577.00;;;11.92;74.61
2339;BME280;1180;51.438;6.978;2024-02-21T07:51:35;100575.53;;;12.02;74.90
2339;BME280;1180;51.438;6.978;2024-02-21T07:54:01;100561.84;;;12.16;73.62
2339;BME280;1180;51.438;6.978;2024-02-21T07:56:29;100555.78;;;12.17;73.79
2339;BME280;1180;51.438;6.978;2024-02-21T07:58:54;100561.78;;;12.18;73.88
2339;BME280;1180;51.438;6.978;2024-02-21T08:01:20;100550.63;;;12.17;73.53
2339;BME280;1180;51.438;6.978;2024-02-21T08:03:46;100556.03;;;11.98;73.76
2339;BME280;1180;51.438;6.978;2024-02-21T08:06:12;100561.47;;;11.93;74.73
2339;BME280;1180;51.438;6.978;2024-02-21T08:08:38;100551.59;;;12.02;74.03
2339;BME280;1180;51.438;6.978;2024-02-21T08:11:04;100543.56;;;11.92;75.11
2339;BME280;1180;51.438;6.978;2024-02-21T08:13:29;100545.69;;;11.99;75.49
2339;BME280;1180;51.438;6.978;2024-02-21T08:15:54;100530.16;;;12.01;75.39
2339;BME280;1180;51.438;6.978;2024-02-21T08:18:20;100528.88;;;12.08;75.31
2339;BME280;1180;51.438;6.978;2024-02-21T08:20:45;100530.97;;;12.16;74.67
2339;BME280;1180;51.438;6.978;2024-02-21T08:23:11;100523.25;;;12.16;74.13
2339;BME280;1180;51.438;6.978;2024-02-21T08:25:36;100524.56;;;12.09;74.78
2339;BME280;1180;51.438;6.978;2024-02-21T08:28:02;100513.72;;;12.04;74.94
2339;BME280;1180;51.438;6.978;2024-02-21T08:30:27;100510.03;;;11.93;75.32
2339;BME280;1180;51.438;6.978;2024-02-21T08:32:53;100505.16;;;11.89;76.47
2339;BME280;1180;51.438;6.978;2024-02-21T08:35:21;100502.88;;;11.98;76.61
2339;BME280;1180;51.438;6.978;2024-02-21T08:37:49;100503.06;;;11.95;76.70
2339;BME280;1180;51.438;6.978;2024-02-21T08:40:15;100500.75;;;11.76;77.18
2339;BME280;1180;51.438;6.978;2024-02-21T08:42:44;100496.63;;;11.74;77.39
2339;BME280;1180;51.438;6.978;2024-02-21T08:45:10;100498.56;;;11.84;76.74
2339;BME280;1180;51.438;6.978;2024-02-21T08:47:36;100491.22;;;11.78;76.59
2339;BME280;1180;51.438;6.978;2024-02-21T08:50:02;100500.88;;;11.75;76.50
2339;BME280;1180;51.438;6.978;2024-02-21T08:52:28;100503.25;;;11.78;76.25
2339;BME280;1180;51.438;6.978;2024-02-21T08:54:53;100507.66;;;11.76;76.03
2339;BME280;1180;51.438;6.978;2024-02-21T08:57:19;100483.44;;;11.65;76.52
2339;BME280;1180;51.438;6.978;2024-02-21T08:59:45;100477.19;;;11.69;75.70
2339;BME280;1180;51.438;6.978;2024-02-21T09:02:10;100477.81;;;11.73;75.68
2339;BME280;1180;51.438;6.978;2024-02-21T09:04:35;100478.66;;;11.74;75.71
2339;BME280;1180;51.438;6.978;2024-02-21T09:07:00;100475.84;;;11.91;75.42
2339;BME280;1180;51.438;6.978;2024-02-21T09:09:26;100472.19;;;11.95;75.04
2339;BME280;1180;51.438;6.978;2024-02-21T09:11:53;100473.47;;;11.88;74.00
2339;BME280;1180;51.438;6.978;2024-02-21T09:14:19;100471.56;;;11.92;74.45
2339;BME280;1180;51.438;6.978;2024-02-21T09:16:44;100456.84;;;12.08;73.93
2339;BME280;1180;51.438;6.978;2024-02-21T09:19:10;100462.63;;;12.12;73.60
2339;BME280;1180;51.438;6.978;2024-02-21T09:21:39;100460.69;;;12.16;73.12
2339;BME280;1180;51.438;6.978;2024-02-21T09:24:05;100463.69;;;12.22;72.92
2339;BME280;1180;51.438;6.978;2024-02-21T09:26:31;100455.91;;;12.24;73.34
2339;BME280;1180;51.438;6.978;2024-02-21T09:28:56;100452.66;;;12.35;72.97
2339;BME280;1180;51.438;6.978;2024-02-21T09:31:22;100449.16;;;12.36;72.04
2339;BME280;1180;51.438;6.978;2024-02-21T09:33:47;100445.91;;;12.47;71.11
2339;BME280;1180;51.438;6.978;2024-02-21T09:36:12;100443.84;;;12.52;71.27
2339;BME280;1180;51.438;6.978;2024-02-21T09:38:39;100441.66;;;12.46;71.56
2339;BME280;1180;51.438;6.978;2024-02-21T09:41:18;100437.84;;;12.51;70.89
2339;BME280;1180;51.438;6.978;2024-02-21T09:43:49;100432.63;;;12.53;71.03
2339;BME280;1180;51.438;6.978;2024-02-21T09:46:19;100429.22;;;12.52;70.20
2339;BME280;1180;51.438;6.978;2024-02-21T09:49:02;100437.06;;;12.51;69.83
2339;BME280;1180;51.438;6.978;2024-02-21T09:51:32;100436.81;;;12.41;69.85
2339;BME280;1180;51.438;6.978;2024-02-21T09:53:59;100430.59;;;12.31;70.73
2339;BME280;1180;51.438;6.978;2024-02-21T09:56:25;100432.44;;;12.28;70.02
2339;BME280;1180;51.438;6.978;2024-02-21T09:58:51;100441.22;;;12.39;70.10
2339;BME280;1180;51.438;6.978;2024-02-21T10:01:16;100430.22;;;12.37;69.70
2339;BME280;1180;51.438;6.978;2024-02-21T10:03:42;100428.41;;;12.24;70.13
2339;BME280;1180;51.438;6.978;2024-02-21T10:06:09;100429.44;;;12.22;70.62
2339;BME280;1180;51.438;6.978;2024-02-21T10:08:35;100433.78;;;12.34;69.86
2339;BME280;1180;51.438;6.978;2024-02-21T10:11:00;100431.53;;;12.30;70.46
2339;BME280;1180;51.438;6.978;2024-02-21T10:13:29;100424.03;;;12.39;70.39
2339;BME280;1180;51.438;6.978;2024-02-21T10:16:05;100416.22;;;12.41;69.77
2339;BME280;1180;51.438;6.978;2024-02-21T10:18:31;100410.66;;;12.47;69.76
2339;BME280;1180;51.438;6.978;2024-02-21T10:21:17;100417.06;;;12.54;69.89
2339;BME280;1180;51.438;6.978;2024-02-21T10:26:09;100414.63;;;12.66;68.75
2339;BME280;1180;51.438;6.978;2024-02-21T10:28:34;100408.41;;;12.55;69.21
2339;BME280;1180;51.438;6.978;2024-02-21T10:30:59;100413.28;;;12.60;68.77
2339;BME280;1180;51.438;6.978;2024-02-21T10:33:25;100398.47;;;12.64;68.75
2339;BME280;1180;51.438;6.978;2024-02-21T10:35:53;100401.81;;;12.51;68.68
2339;BME280;1180;51.438;6.978;2024-02-21T10:38:18;100384.22;;;12.58;68.57
2339;BME280;1180;51.438;6.978;2024-02-21T10:40:44;100390.09;;;12.60;68.33
2339;BME280;1180;51.438;6.978;2024-02-21T10:43:13;100376.72;;;12.68;67.62
2339;BME280;1180;51.438;6.978;2024-02-21T10:45:40;100373.75;;;12.74;67.82
2339;BME280;1180;51.438;6.978;2024-02-21T10:48:13;100366.22;;;12.71;67.62
2339;BME280;1180;51.438;6.978;2024-02-21T10:53:24;100367.16;;;12.83;67.68
2339;BME280;1180;51.438;6.978;2024-02-21T10:56:33;100350.47;;;12.89;67.51
2339;BME280;1180;51.438;6.978;2024-02-21T10:59:04;100342.13;;;12.85;66.54
2339;BME280;1180;51.438;6.978;2024-02-21T11:01:30;100339.22;;;12.90;67.22
2339;BME280;1180;51.438;6.978;2024-02-21T11:04:08;100328.53;;;12.96;66.53
2339;BME280;1180;51.438;6.978;2024-02-21T11:06:35;100309.03;;;13.05;66.79
2339;BME280;1180;51.438;6.978;2024-02-21T11:09:06;100309.03;;;12.92;65.65
2339;BME280;1180;51.438;6.978;2024-02-21T11:11:34;100295.13;;;13.07;66.85
2339;BME280;1180;51.438;6.978;2024-02-21T11:14:20;100287.03;;;13.25;66.11
2339;BME280;1180;51.438;6.978;2024-02-21T11:16:47;100275.28;;;13.21;65.67
2339;BME280;1180;51.438;6.978;2024-02-21T11:19:19;100279.09;;;13.28;65.29
2339;BME280;1180;51.438;6.978;2024-02-21T11:21:45;100267.28;;;13.37;64.35
2339;BME280;1180;51.438;6.978;2024-02-21T11:24:10;100254.75;;;13.45;64.33
2339;BME280;1180;51.438;6.978;2024-02-21T11:26:39;100241.00;;;13.45;63.59
2339;BME280;1180;51.438;6.978;2024-02-21T11:29:07;100226.69;;;13.40;63.52
2339;BME280;1180;51.438;6.978;2024-02-21T11:31:44;100232.50;;;13.31;64.54
2339;BME280;1180;51.438;6.978;2024-02-21T11:34:17;100209.56;;;13.39;64.13
2339;BME280;1180;51.438;6.978;2024-02-21T11:36:52;100194.88;;;13.53;64.04
2339;BME280;1180;51.438;6.978;2024-02-21T11:39:22;100199.22;;;13.52;63.55
2339;BME280;1180;51.438;6.978;2024-02-21T11:42:03;100199.31;;;13.51;64.46
2339;BME280;1180;51.438;6.978;2024-02-21T11:44:35;100185.41;;;13.53;64.17
2339;BME280;1180;51.438;6.978;2024-02-21T11:47:06;100179.69;;;13.61;63.66
2339;BME280;1180;51.438;6.978;2024-02-21T11:49:43;100170.88;;;13.64;63.81
2339;BME280;1180;51.438;6.978;2024-02-21T11:52:08;100161.50;;;13.63;63.20
2339;BME280;1180;51.438;6.978;2024-02-21T11:54:34;100144.25;;;13.52;63.46
2339;BME280;1180;51.438;6.978;2024-02-21T11:57:00;100123.38;;;13.55;63.05
2339;BME280;1180;51.438;6.978;2024-02-21T11:59:26;100124.59;;;13.62;63.03
2339;BME280;1180;51.438;6.978;2024-02-21T12:01:53;100124.63;;;13.74;62.57
2339;BME280;1180;51.438;6.978;2024-02-21T12:04:19;100128.75;;;13.76;62.12
2339;BME280;1180;51.438;6.978;2024-02-21T12:06:45;100110.19;;;13.71;61.53
2339;BME280;1180;51.438;6.978;2024-02-21T12:09:17;100092.03;;;13.61;61.75
2339;BME280;1180;51.438;6.978;2024-02-21T12:11:43;100085.59;;;13.78;61.06
2339;BME280;1180;51.438;6.978;2024-02-21T12:14:09;100073.16;;;13.72;61.21
2339;BME280;1180;51.438;6.978;2024-02-21T12:16:35;100076.44;;;13.74;61.41
2339;BME280;1180;51.438;6.978;2024-02-21T12:19:08;100073.88;;;13.85;60.88
2339;BME280;1180;51.438;6.978;2024-02-21T12:21:34;100062.72;;;13.85;61.17
2339;BME280;1180;51.438;6.978;2024-02-21T12:24:15;100052.63;;;13.82;60.27
2339;BME280;1180;51.438;6.978;2024-02-21T12:26:41;100043.25;;;13.81;60.08
2339;BME280;1180;51.438;6.978;2024-02-21T12:29:06;100032.59;;;13.74;59.65
2339;BME280;1180;51.438;6.978;2024-02-21T12:31:38;100045.16;;;13.67;60.23
2339;BME280;1180;51.438;6.978;2024-02-21T12:34:04;100044.91;;;13.82;59.93
2339;BME280;1180;51.438;6.978;2024-02-21T12:36:31;100048.88;;;13.86;59.61
2339;BME280;1180;51.438;6.978;2024-02-21T12:38:56;100044.09;;;13.93;59.74
2339;BME280;1180;51.438;6.978;2024-02-21T12:41:23;100025.94;;;13.94;59.26
2339;BME280;1180;51.438;6.978;2024-02-21T12:43:50;100038.59;;;13.97;59.38
2339;BME280;1180;51.438;6.978;2024-02-21T12:46:16;100030.47;;;14.02;59.50
2339;BME280;1180;51.438;6.978;2024-02-21T12:48:41;100030.00;;;14.08;59.47
2339;BME280;1180;51.438;6.978;2024-02-21T12:51:07;100021.44;;;14.08;58.95
2339;BME280;1180;51.438;6.978;2024-02-21T12:53:33;100009.00;;;14.13;59.49
2339;BME280;1180;51.438;6.978;2024-02-21T12:55:59;100014.84;;;14.26;59.12
2339;BME280;1180;51.438;6.978;2024-02-21T12:58:24;99994.66;;;14.32;58.93
2339;BME280;1180;51.438;6.978;2024-02-21T13:00:49;99996.66;;;14.28;59.04
2339;BME280;1180;51.438;6.978;2024-02-21T13:03:15;99998.88;;;14.21;58.40
2339;BME280;1180;51.438;6.978;2024-02-21T13:05:40;99976.84;;;14.17;58.45
2339;BME280;1180;51.438;6.978;2024-02-21T13:08:06;99984.00;;;14.25;58.43
2339;BME280;1180;51.438;6.978;2024-02-21T13:10:32;99976.19;;;14.36;58.29